Winnebago, Wisconsin
Current Conditions -  °F | °C
As of 3:53 AM on Saturday 22 Nov 2014 (Local Time) from KOSH Reporting Station
Overcast Overcast  
Wind Chill: 22°   Ceiling: 1400
Heat Index: 32°   Visibility: 10mi
Dew Point: 25°   Wind: 14mph
Humidity: 75%   Direction: 220°SW
Pressure: 29.94"   Gusts: 24mph
Location:  44.08°N, 88.53°W
Report Text: KOSH 220953Z 22012G21KT 10SM OVC014 00/M04 A2994 RMK AO2 SLP154 T00001039
Loading
Personal Weather Stations






























Interactive Weather Map New forecast layout! Learn more

10-Day Weather Forecast

Advertisements
Track Severe Weather on mobile